createdAt,value
2023-03-05T00:00:15.317Z,100.00
2023-03-05T00:02:43.775Z,100.00
2023-03-05T00:05:13.278Z,100.00
2023-03-05T00:07:41.028Z,100.00
2023-03-05T00:10:09.759Z,100.00
2023-03-05T00:12:37.569Z,100.00
2023-03-05T00:15:06.073Z,100.00
2023-03-05T00:17:33.769Z,100.00
2023-03-05T00:20:02.482Z,100.00
2023-03-05T00:22:31.730Z,100.00
2023-03-05T00:24:59.486Z,100.00
2023-03-05T00:27:27.234Z,100.00
2023-03-05T00:29:54.987Z,100.00
2023-03-05T00:32:22.819Z,100.00
2023-03-05T00:34:50.862Z,100.00
2023-03-05T00:37:18.578Z,100.00
2023-03-05T00:39:47.688Z,100.00
2023-03-05T00:42:15.403Z,100.00
2023-03-05T00:44:43.138Z,100.00
2023-03-05T00:47:10.879Z,100.00
2023-03-05T00:49:38.565Z,100.00
2023-03-05T00:52:06.498Z,100.00
2023-03-05T00:54:34.209Z,100.00
2023-03-05T00:57:03.308Z,100.00
2023-03-05T00:59:31.025Z,100.00
2023-03-05T01:01:58.780Z,100.00
2023-03-05T01:04:26.553Z,100.00
2023-03-05T01:06:54.461Z,100.00
2023-03-05T01:09:25.174Z,100.00
2023-03-05T01:11:53.440Z,100.00
2023-03-05T01:14:22.780Z,100.00
2023-03-05T01:16:50.697Z,100.00
2023-03-05T01:19:18.427Z,100.00
2023-03-05T01:21:46.163Z,100.00
2023-03-05T01:24:13.969Z,100.00
2023-03-05T01:26:41.712Z,100.00
2023-03-05T01:29:09.437Z,97.78
2023-03-05T01:31:38.560Z,99.48
2023-03-05T01:34:06.312Z,94.41
2023-03-05T01:36:34.087Z,94.43
2023-03-05T01:39:02.801Z,90.74
2023-03-05T01:41:30.547Z,83.06
2023-03-05T01:43:58.278Z,77.82
2023-03-05T01:46:31.776Z,79.92
2023-03-05T01:49:05.530Z,79.23
2023-03-05T01:51:37.862Z,78.17
2023-03-05T01:54:08.469Z,83.45
2023-03-05T01:56:36.979Z,87.58
2023-03-05T01:59:04.889Z,91.69
2023-03-05T02:01:36.453Z,90.94
2023-03-05T02:04:06.416Z,91.34
2023-03-05T02:06:34.906Z,89.74
2023-03-05T02:09:02.632Z,93.34
2023-03-05T02:11:30.917Z,92.28
2023-03-05T02:13:59.442Z,92.80
2023-03-05T02:16:27.548Z,94.95
2023-03-05T02:18:55.270Z,94.91
2023-03-05T02:21:37.149Z,99.50
2023-03-05T02:24:05.355Z,97.26
2023-03-05T02:26:33.150Z,96.09
2023-03-05T02:29:02.804Z,95.87
2023-03-05T02:31:31.255Z,90.31
2023-03-05T02:33:59.098Z,90.03
2023-03-05T02:36:27.248Z,84.25
2023-03-05T02:38:57.098Z,81.39
2023-03-05T02:41:25.930Z,79.67
2023-03-05T02:43:53.668Z,76.40
2023-03-05T02:46:21.413Z,70.99
2023-03-05T02:48:49.976Z,72.24
2023-03-05T02:51:18.246Z,73.88
2023-03-05T02:53:46.037Z,76.25
2023-03-05T02:56:15.214Z,79.80
2023-03-05T02:58:43.011Z,80.41
2023-03-05T03:01:11.338Z,83.28
2023-03-05T03:03:39.238Z,85.42
2023-03-05T03:06:08.021Z,90.29
2023-03-05T03:08:35.844Z,95.16
2023-03-05T03:11:07.951Z,90.87
2023-03-05T03:13:37.100Z,87.73
2023-03-05T03:16:06.489Z,86.09
2023-03-05T03:18:34.440Z,85.14
2023-03-05T03:21:02.628Z,76.15
2023-03-05T03:23:30.579Z,75.10
2023-03-05T03:25:58.857Z,76.64
2023-03-05T03:28:26.866Z,77.10
2023-03-05T03:30:56.113Z,74.95
2023-03-05T03:33:23.876Z,78.18
2023-03-05T03:35:51.746Z,79.08
2023-03-05T03:38:19.791Z,78.03
2023-03-05T03:40:47.552Z,75.05
2023-03-05T03:43:15.266Z,79.79
2023-03-05T03:45:43.585Z,81.28
2023-03-05T03:48:13.048Z,81.23
2023-03-05T03:50:41.320Z,77.27
2023-03-05T03:53:09.817Z,75.78
2023-03-05T03:55:37.538Z,79.33
2023-03-05T03:58:05.354Z,83.82
2023-03-05T04:00:33.157Z,86.03
2023-03-05T04:03:00.873Z,87.40
2023-03-05T04:05:30.250Z,88.16
2023-03-05T04:07:59.911Z,90.82
2023-03-05T04:10:27.723Z,88.91
2023-03-05T04:12:55.451Z,84.04
2023-03-05T04:15:23.225Z,79.45
2023-03-05T04:17:50.931Z,77.64
2023-03-05T04:20:18.987Z,75.42
2023-03-05T04:22:48.096Z,69.02
2023-03-05T04:25:16.007Z,70.81
2023-03-05T04:27:43.762Z,71.50
2023-03-05T04:30:14.727Z,72.00
2023-03-05T04:32:42.517Z,77.36
2023-03-05T04:35:10.891Z,77.63
2023-03-05T04:37:38.733Z,81.30
2023-03-05T04:40:09.362Z,79.00
2023-03-05T04:42:37.123Z,77.63
2023-03-05T04:45:06.706Z,77.63
2023-03-05T04:47:35.131Z,85.32
2023-03-05T04:50:03.209Z,90.22
2023-03-05T04:52:31.005Z,91.80
2023-03-05T04:54:59.098Z,92.05
2023-03-05T04:57:28.303Z,93.49
2023-03-05T04:59:56.041Z,91.12
2023-03-05T05:02:23.815Z,90.08
2023-03-05T05:04:54.193Z,87.79
2023-03-05T05:07:22.350Z,88.34
2023-03-05T05:09:50.108Z,80.55
2023-03-05T05:12:18.194Z,80.57
2023-03-05T05:14:47.313Z,78.09
2023-03-05T05:17:15.051Z,76.07
2023-03-05T05:19:42.869Z,75.77
2023-03-05T05:22:10.648Z,82.85
2023-03-05T05:24:38.400Z,82.96
2023-03-05T05:27:06.155Z,86.05
2023-03-05T05:29:33.890Z,83.93
2023-03-05T05:32:03.014Z,85.89
2023-03-05T05:34:30.724Z,83.92
2023-03-05T05:36:58.498Z,84.60
2023-03-05T05:39:26.300Z,81.94
2023-03-05T05:41:54.517Z,83.33
2023-03-05T05:44:22.225Z,84.32
2023-03-05T05:46:50.020Z,85.62
2023-03-05T05:49:19.190Z,85.65
2023-03-05T05:51:46.993Z,87.68
2023-03-05T05:54:15.794Z,84.06
2023-03-05T05:56:43.602Z,83.90
2023-03-05T05:59:11.642Z,85.93
2023-03-05T06:01:39.426Z,88.23
2023-03-05T06:04:07.294Z,88.01
2023-03-05T06:06:36.417Z,85.53
2023-03-05T06:09:05.163Z,87.93
2023-03-05T06:11:34.061Z,84.77
2023-03-05T06:14:02.922Z,84.72
2023-03-05T06:16:31.433Z,81.66
2023-03-05T06:19:00.103Z,78.29
2023-03-05T06:21:27.830Z,80.18
2023-03-05T06:23:58.664Z,79.02
2023-03-05T06:26:26.917Z,72.69
2023-03-05T06:28:55.076Z,75.72
2023-03-05T06:31:25.622Z,75.87
2023-03-05T06:33:54.771Z,77.84
2023-03-05T06:36:24.487Z,75.85
2023-03-05T06:38:53.405Z,73.39
2023-03-05T06:41:24.227Z,68.76
2023-03-05T06:43:52.061Z,65.59
2023-03-05T06:46:21.864Z,65.60
2023-03-05T06:48:50.687Z,61.70
2023-03-05T06:51:21.086Z,61.74
2023-03-05T06:53:49.685Z,62.31
2023-03-05T06:56:18.417Z,60.98
2023-03-05T06:58:49.721Z,61.74
2023-03-05T07:01:18.361Z,60.33
2023-03-05T07:03:46.578Z,62.58
2023-03-05T07:06:15.871Z,62.81
2023-03-05T07:08:44.741Z,58.25
2023-03-05T07:11:13.035Z,55.84
2023-03-05T07:13:40.811Z,54.04
2023-03-05T07:16:11.774Z,52.50
2023-03-05T07:18:39.483Z,55.13
2023-03-05T07:21:08.592Z,53.42
2023-03-05T07:23:37.652Z,55.17
2023-03-05T07:26:07.465Z,56.52
2023-03-05T07:28:35.694Z,56.85
2023-03-05T07:31:05.913Z,54.84
2023-03-05T07:33:37.209Z,53.09
2023-03-05T07:36:05.517Z,52.04
2023-03-05T07:38:33.304Z,52.19
2023-03-05T07:41:03.869Z,51.15
2023-03-05T07:43:31.664Z,52.07
2023-03-05T07:45:59.610Z,51.73
2023-03-05T07:48:27.376Z,51.34
2023-03-05T07:51:03.521Z,50.66
2023-03-05T07:53:31.584Z,49.16
2023-03-05T07:55:59.329Z,50.16
2023-03-05T07:58:27.392Z,49.05
2023-03-05T08:00:55.131Z,48.89
2023-03-05T08:03:22.893Z,49.31
2023-03-05T08:05:50.666Z,50.40
2023-03-05T08:08:19.959Z,49.61
2023-03-05T08:10:47.767Z,47.59
2023-03-05T08:13:15.535Z,44.25
2023-03-05T08:15:43.402Z,45.33
2023-03-05T08:18:11.206Z,47.14
2023-03-05T08:20:38.945Z,46.72
2023-03-05T08:23:06.746Z,46.99
2023-03-05T08:25:35.824Z,46.56
2023-03-05T08:28:03.540Z,46.86
2023-03-05T08:30:31.266Z,43.89
2023-03-05T08:32:58.981Z,41.05
2023-03-05T08:35:26.738Z,41.33
2023-03-05T08:37:54.514Z,40.22
2023-03-05T08:40:22.302Z,41.45
2023-03-05T08:42:52.208Z,41.51
2023-03-05T08:45:19.961Z,43.70
2023-03-05T08:47:47.679Z,42.62
2023-03-05T08:50:15.400Z,41.58
2023-03-05T08:52:43.108Z,41.72
2023-03-05T08:55:12.554Z,41.61
2023-03-05T08:57:40.301Z,41.73
2023-03-05T09:00:12.608Z,41.74
2023-03-05T09:02:40.421Z,41.12
2023-03-05T09:05:09.272Z,39.88
2023-03-05T09:07:37.894Z,40.20
2023-03-05T09:10:06.722Z,41.31
2023-03-05T09:12:34.447Z,40.62
2023-03-05T09:15:02.191Z,41.43
2023-03-05T09:17:31.305Z,39.44
2023-03-05T09:19:59.078Z,38.73
2023-03-05T09:22:26.922Z,38.37
2023-03-05T09:24:54.717Z,37.56
2023-03-05T09:27:23.276Z,38.35
2023-03-05T09:29:52.532Z,36.13
2023-03-05T09:32:20.325Z,39.93
2023-03-05T09:34:49.469Z,38.69
2023-03-05T09:37:17.229Z,41.03
2023-03-05T09:39:45.069Z,37.45
2023-03-05T09:42:30.620Z,40.22
2023-03-05T09:45:08.858Z,38.72
2023-03-05T09:47:47.803Z,40.78
2023-03-05T09:50:36.718Z,38.31
2023-03-05T09:53:13.505Z,40.16
2023-03-05T09:55:45.641Z,42.22
2023-03-05T09:58:17.403Z,44.75
2023-03-05T10:00:46.806Z,43.89
2023-03-05T10:03:20.857Z,42.93
2023-03-05T10:06:03.140Z,42.87
2023-03-05T10:08:41.548Z,41.58
2023-03-05T10:11:24.007Z,39.96
2023-03-05T10:13:52.222Z,37.64
2023-03-05T10:16:42.754Z,39.39
2023-03-05T10:19:20.699Z,36.58
2023-03-05T10:21:54.617Z,36.34
2023-03-05T10:24:31.516Z,38.46
2023-03-05T10:27:03.813Z,39.91
2023-03-05T10:29:45.826Z,38.63
2023-03-05T10:32:25.040Z,38.86
2023-03-05T10:35:12.370Z,37.25
2023-03-05T10:37:59.963Z,37.90
2023-03-05T10:40:33.682Z,37.88
2023-03-05T10:43:09.491Z,39.47
2023-03-05T10:45:42.480Z,36.55
2023-03-05T10:48:17.280Z,37.14
2023-03-05T10:50:48.904Z,38.08
2023-03-05T10:53:26.185Z,37.93
2023-03-05T10:55:56.496Z,37.25
2023-03-05T10:58:26.003Z,35.00
2023-03-05T11:01:02.636Z,34.12
2023-03-05T11:03:48.104Z,33.69
2023-03-05T11:06:17.508Z,37.51
2023-03-05T11:08:46.948Z,37.72
2023-03-05T11:11:17.700Z,36.14
2023-03-05T11:13:54.484Z,38.78
2023-03-05T11:16:25.027Z,38.74
2023-03-05T11:19:17.692Z,37.42
2023-03-05T11:21:47.439Z,36.92
2023-03-05T11:24:20.349Z,33.91
2023-03-05T11:26:51.146Z,35.12
2023-03-05T11:29:22.599Z,37.82
2023-03-05T11:31:51.322Z,37.21
2023-03-05T11:34:40.217Z,35.61
2023-03-05T11:37:20.604Z,36.96
2023-03-05T11:39:50.228Z,36.67
2023-03-05T11:42:25.073Z,38.87
2023-03-05T11:44:55.784Z,35.34
2023-03-05T11:47:29.570Z,33.97
2023-03-05T11:50:04.234Z,33.97
2023-03-05T11:52:35.241Z,34.40
2023-03-05T11:55:11.810Z,35.97
2023-03-05T11:57:44.750Z,33.88
2023-03-05T12:00:18.282Z,34.87
2023-03-05T12:02:51.701Z,35.26
2023-03-05T12:05:19.656Z,33.46
2023-03-05T12:07:51.163Z,32.65
2023-03-05T12:10:23.280Z,33.66
2023-03-05T12:12:59.031Z,32.76
2023-03-05T12:15:42.157Z,32.80
2023-03-05T12:18:19.690Z,33.07
2023-03-05T12:20:54.426Z,32.99
2023-03-05T12:23:23.555Z,32.98
2023-03-05T12:25:56.997Z,32.37
2023-03-05T12:29:04.513Z,34.86
2023-03-05T12:31:40.137Z,33.56
2023-03-05T12:34:36.164Z,35.39
2023-03-05T12:37:04.508Z,31.62
2023-03-05T12:39:52.643Z,31.98
2023-03-05T12:42:56.671Z,29.20
2023-03-05T12:45:29.652Z,30.28
2023-03-05T12:48:34.697Z,30.19
2023-03-05T12:51:02.536Z,34.87
2023-03-05T12:53:30.327Z,33.51
2023-03-05T12:56:03.976Z,32.03
2023-03-05T12:58:40.834Z,32.04
2023-03-05T13:01:22.025Z,33.39
2023-03-05T13:03:55.749Z,34.34
2023-03-05T13:06:29.213Z,33.88
2023-03-05T13:08:59.213Z,36.92
2023-03-05T13:11:28.660Z,35.05
2023-03-05T13:13:56.543Z,37.25
2023-03-05T13:16:29.080Z,36.58
2023-03-05T13:19:01.235Z,35.64
2023-03-05T13:21:30.732Z,38.10
2023-03-05T13:23:59.889Z,36.99
2023-03-05T13:26:29.047Z,38.02
2023-03-05T13:29:13.076Z,38.18
2023-03-05T13:31:47.506Z,37.43
2023-03-05T13:34:22.565Z,35.79
2023-03-05T13:36:56.741Z,38.55
2023-03-05T13:39:28.373Z,37.82
2023-03-05T13:42:01.790Z,37.30
2023-03-05T13:44:31.449Z,38.50
2023-03-05T13:47:18.144Z,36.47
2023-03-05T13:49:47.304Z,36.33
2023-03-05T13:52:25.078Z,35.33
2023-03-05T13:54:52.952Z,35.75
2023-03-05T13:57:39.178Z,36.29
2023-03-05T14:00:09.661Z,36.09
2023-03-05T14:02:44.203Z,36.00
2023-03-05T14:05:16.512Z,35.24
2023-03-05T14:07:48.048Z,35.45
2023-03-05T14:10:30.843Z,35.28
2023-03-05T14:12:59.730Z,33.76
2023-03-05T14:15:29.963Z,34.92
2023-03-05T14:18:19.374Z,36.35
2023-03-05T14:21:02.628Z,36.24
2023-03-05T14:23:39.789Z,34.71
2023-03-05T14:26:32.607Z,35.04
2023-03-05T14:29:02.360Z,33.59
2023-03-05T14:31:32.174Z,34.66
2023-03-05T14:34:07.154Z,35.21
2023-03-05T14:36:35.339Z,37.00
2023-03-05T14:39:03.128Z,36.64
2023-03-05T14:41:37.767Z,37.20
2023-03-05T14:44:13.588Z,39.60
2023-03-05T14:46:41.687Z,37.72
2023-03-05T14:49:11.286Z,35.99
2023-03-05T14:51:41.566Z,36.64
2023-03-05T14:54:20.309Z,36.10
2023-03-05T14:56:49.670Z,35.57
2023-03-05T14:59:18.984Z,34.49
2023-03-05T15:01:46.779Z,35.42
2023-03-05T15:04:20.991Z,34.86
2023-03-05T15:06:51.199Z,36.17
2023-03-05T15:09:21.184Z,34.86
2023-03-05T15:11:49.613Z,35.62
2023-03-05T15:14:17.534Z,36.06
2023-03-05T15:16:47.787Z,35.37
2023-03-05T15:19:17.023Z,34.56
2023-03-05T15:21:44.918Z,35.91
2023-03-05T15:24:14.766Z,36.22
2023-03-05T15:26:42.603Z,36.14
2023-03-05T15:29:10.380Z,36.46
2023-03-05T15:31:40.696Z,37.11
2023-03-05T15:34:08.533Z,36.91
2023-03-05T15:36:37.639Z,37.68
2023-03-05T15:39:07.175Z,36.56
2023-03-05T15:41:34.951Z,35.68
2023-03-05T15:44:02.690Z,37.41
2023-03-05T15:46:30.531Z,36.87
2023-03-05T15:48:58.295Z,37.61
2023-03-05T15:51:26.036Z,38.18
2023-03-05T15:53:55.308Z,37.32
2023-03-05T15:56:23.037Z,36.31
2023-03-05T15:58:51.299Z,38.31
2023-03-05T16:01:20.726Z,39.53
2023-03-05T16:03:48.544Z,38.86
2023-03-05T16:06:20.434Z,39.06
2023-03-05T16:08:48.638Z,39.58
2023-03-05T16:11:18.994Z,39.79
2023-03-05T16:13:46.827Z,40.74
2023-03-05T16:16:15.080Z,42.12
2023-03-05T16:18:46.214Z,43.02
2023-03-05T16:21:14.833Z,46.28
2023-03-05T16:23:42.619Z,48.65
2023-03-05T16:26:11.036Z,48.67
2023-03-05T16:28:40.245Z,47.94
2023-03-05T16:31:08.107Z,49.69
2023-03-05T16:33:36.478Z,50.45
2023-03-05T16:36:23.679Z,50.06
2023-03-05T16:38:52.946Z,51.91
2023-03-05T16:41:24.333Z,53.42
2023-03-05T16:43:56.315Z,55.02
2023-03-05T16:46:25.027Z,51.61
2023-03-05T16:48:53.117Z,54.96
2023-03-05T16:51:22.155Z,56.80
2023-03-05T16:53:49.949Z,56.95
2023-03-05T16:56:18.244Z,58.60
2023-03-05T16:58:46.210Z,56.53
2023-03-05T17:01:17.783Z,60.81
2023-03-05T17:03:45.698Z,59.33
2023-03-05T17:06:14.688Z,58.46
2023-03-05T17:08:42.834Z,57.21
2023-03-05T17:11:11.985Z,62.38
2023-03-05T17:13:40.902Z,61.53
2023-03-05T17:16:10.296Z,65.05
2023-03-05T17:18:39.751Z,62.98
2023-03-05T17:21:08.383Z,66.45
2023-03-05T17:23:38.532Z,69.45
2023-03-05T17:26:07.520Z,66.91
2023-03-05T17:28:35.644Z,65.25
2023-03-05T17:31:04.000Z,70.25
2023-03-05T17:33:35.687Z,70.18
2023-03-05T17:36:06.385Z,74.17
2023-03-05T17:38:34.253Z,73.96
2023-03-05T17:41:01.995Z,78.51
2023-03-05T17:43:29.897Z,79.84
2023-03-05T17:45:59.680Z,84.96
2023-03-05T17:48:27.868Z,86.31
2023-03-05T17:50:55.666Z,85.36
2023-03-05T17:53:24.947Z,85.47
2023-03-05T17:55:53.078Z,84.76
2023-03-05T17:58:20.927Z,84.01
2023-03-05T18:00:48.863Z,87.95
2023-03-05T18:03:16.640Z,88.19
2023-03-05T18:05:46.138Z,87.83
2023-03-05T18:08:14.036Z,87.88
2023-03-05T18:10:43.408Z,90.19
2023-03-05T18:13:11.220Z,88.62
2023-03-05T18:15:41.732Z,90.47
2023-03-05T18:18:09.443Z,86.62
2023-03-05T18:20:38.253Z,96.37
2023-03-05T18:23:06.954Z,92.96
2023-03-05T18:25:35.566Z,91.19
2023-03-05T18:28:07.771Z,87.45
2023-03-05T18:30:37.675Z,92.47
2023-03-05T18:33:06.157Z,94.05
2023-03-05T18:35:34.402Z,93.27
2023-03-05T18:38:02.387Z,94.27
2023-03-05T18:40:33.385Z,93.64
2023-03-05T18:43:02.054Z,96.86
2023-03-05T18:45:32.401Z,95.56
2023-03-05T18:48:00.146Z,99.99
2023-03-05T18:50:29.687Z,100.00
2023-03-05T18:52:57.664Z,100.00
2023-03-05T18:55:27.842Z,100.00
2023-03-05T18:57:56.370Z,100.00
2023-03-05T19:00:26.258Z,100.00
2023-03-05T19:02:56.240Z,100.00
2023-03-05T19:05:26.118Z,100.00
2023-03-05T19:07:55.179Z,100.00
2023-03-05T19:10:23.450Z,100.00
2023-03-05T19:12:56.807Z,100.00
2023-03-05T19:15:24.896Z,100.00
2023-03-05T19:17:52.654Z,100.00
2023-03-05T19:20:21.938Z,100.00
2023-03-05T19:22:50.828Z,100.00
2023-03-05T19:25:19.257Z,100.00
2023-03-05T19:27:47.002Z,100.00
2023-03-05T19:30:16.256Z,100.00
2023-03-05T19:32:47.057Z,100.00
2023-03-05T19:35:16.209Z,100.00
2023-03-05T19:37:46.084Z,100.00
2023-03-05T19:40:15.191Z,100.00
2023-03-05T19:42:43.067Z,100.00
2023-03-05T19:45:11.645Z,100.00
2023-03-05T19:47:39.384Z,100.00
2023-03-05T19:50:08.530Z,100.00
2023-03-05T19:52:36.647Z,100.00
2023-03-05T19:55:06.751Z,100.00
2023-03-05T19:57:34.481Z,100.00
2023-03-05T20:00:02.216Z,100.00
2023-03-05T20:02:29.953Z,100.00
2023-03-05T20:04:57.689Z,100.00
2023-03-05T20:07:25.457Z,100.00
2023-03-05T20:09:55.365Z,100.00
2023-03-05T20:12:24.835Z,100.00
2023-03-05T20:14:52.544Z,100.00
2023-03-05T20:17:20.701Z,100.00
2023-03-05T20:19:48.448Z,100.00
2023-03-05T20:22:16.152Z,100.00
2023-03-05T20:24:43.923Z,100.00
2023-03-05T20:27:11.712Z,100.00
2023-03-05T20:29:40.825Z,100.00
2023-03-05T20:32:08.624Z,100.00
2023-03-05T20:34:36.424Z,100.00
2023-03-05T20:37:05.162Z,100.00
2023-03-05T20:39:32.917Z,100.00
2023-03-05T20:42:01.004Z,100.00
2023-03-05T20:44:28.796Z,100.00
2023-03-05T20:47:12.456Z,100.00
2023-03-05T20:49:40.260Z,100.00
2023-03-05T20:52:08.032Z,100.00
2023-03-05T20:54:35.780Z,100.00
2023-03-05T20:57:03.551Z,100.00
2023-03-05T20:59:31.257Z,100.00
2023-03-05T21:02:00.437Z,100.00
2023-03-05T21:04:28.201Z,100.00
2023-03-05T21:06:55.933Z,100.00
2023-03-05T21:09:23.657Z,100.00
2023-03-05T21:11:51.367Z,100.00
2023-03-05T21:14:19.083Z,100.00
2023-03-05T21:16:46.894Z,100.00
2023-03-05T21:19:16.409Z,100.00
2023-03-05T21:21:45.675Z,100.00
2023-03-05T21:24:14.060Z,100.00
2023-03-05T21:26:41.789Z,100.00
2023-03-05T21:29:09.534Z,100.00
2023-03-05T21:31:37.853Z,100.00
2023-03-05T21:34:05.741Z,100.00
2023-03-05T21:36:35.058Z,100.00
2023-03-05T21:39:02.838Z,100.00
2023-03-05T21:41:31.100Z,100.00
2023-03-05T21:44:03.894Z,100.00
2023-03-05T21:46:31.728Z,100.00
2023-03-05T21:48:59.495Z,100.00
2023-03-05T21:51:38.360Z,100.00
2023-03-05T21:54:08.953Z,100.00
2023-03-05T21:56:36.768Z,100.00
2023-03-05T21:59:04.526Z,100.00
2023-03-05T22:01:32.408Z,100.00
2023-03-05T22:04:00.240Z,100.00
2023-03-05T22:06:28.210Z,100.00
2023-03-05T22:08:55.924Z,100.00
2023-03-05T22:11:25.111Z,100.00
2023-03-05T22:13:52.854Z,100.00
2023-03-05T22:16:24.842Z,100.00
2023-03-05T22:18:53.236Z,100.00
2023-03-05T22:21:22.581Z,100.00
2023-03-05T22:23:50.792Z,100.00
2023-03-05T22:26:18.588Z,100.00
2023-03-05T22:28:47.750Z,100.00
2023-03-05T22:31:21.766Z,100.00
2023-03-05T22:33:49.540Z,100.00
2023-03-05T22:36:17.586Z,100.00
2023-03-05T22:38:46.081Z,100.00
2023-03-05T22:41:16.351Z,100.00
2023-03-05T22:43:44.119Z,100.00
2023-03-05T22:46:15.678Z,100.00
2023-03-05T22:48:43.878Z,100.00
2023-03-05T22:51:12.293Z,100.00
2023-03-05T22:53:40.245Z,100.00
2023-03-05T22:56:08.575Z,100.00
2023-03-05T22:58:36.879Z,100.00
2023-03-05T23:01:11.134Z,100.00
2023-03-05T23:03:40.801Z,100.00
2023-03-05T23:06:09.627Z,100.00
2023-03-05T23:08:37.646Z,100.00
2023-03-05T23:11:09.989Z,100.00
2023-03-05T23:13:37.832Z,100.00
2023-03-05T23:16:06.329Z,100.00
2023-03-05T23:18:34.446Z,100.00
2023-03-05T23:21:03.636Z,100.00
2023-03-05T23:23:31.412Z,100.00
2023-03-05T23:25:59.214Z,100.00
2023-03-05T23:28:27.064Z,100.00
2023-03-05T23:30:54.882Z,100.00
2023-03-05T23:33:24.873Z,100.00
2023-03-05T23:35:54.883Z,100.00
2023-03-05T23:38:24.657Z,100.00
2023-03-05T23:40:54.725Z,100.00
2023-03-05T23:43:25.518Z,100.00
2023-03-05T23:45:55.090Z,100.00
2023-03-05T23:48:23.757Z,100.00
2023-03-05T23:50:51.772Z,100.00
2023-03-05T23:53:22.126Z,100.00
2023-03-05T23:55:51.565Z,100.00
2023-03-05T23:58:20.356Z,100.00
